createdAt,value
2023-01-25T00:00:00.878Z,1.21
2023-01-25T00:02:33.278Z,0.97
2023-01-25T00:05:02.942Z,1.14
2023-01-25T00:07:35.209Z,1.16
2023-01-25T00:10:05.141Z,1.21
2023-01-25T00:12:36.576Z,1.22
2023-01-25T00:15:07.168Z,1.22
2023-01-25T00:17:39.647Z,1.25
2023-01-25T00:20:10.047Z,1.20
2023-01-25T00:22:39.684Z,1.15
2023-01-25T00:25:10.053Z,1.14
2023-01-25T00:27:40.146Z,1.10
2023-01-25T00:30:43.216Z,1.16
2023-01-25T00:33:27.859Z,1.10
2023-01-25T00:36:03.831Z,1.11
2023-01-25T00:38:36.688Z,1.11
2023-01-25T00:41:06.607Z,1.12
2023-01-25T00:43:37.989Z,1.14
2023-01-25T00:46:11.987Z,1.13
2023-01-25T00:48:42.030Z,1.18
2023-01-25T00:51:14.368Z,1.31
2023-01-25T00:53:45.617Z,1.43
2023-01-25T00:56:16.386Z,1.38
2023-01-25T00:58:54.033Z,1.33
2023-01-25T01:01:23.908Z,1.30
2023-01-25T01:03:54.822Z,1.18
2023-01-25T01:06:27.066Z,1.12
2023-01-25T01:08:57.089Z,1.08
2023-01-25T01:11:26.882Z,1.07
2023-01-25T01:13:56.585Z,1.09
2023-01-25T01:19:54.087Z,1.16
2023-01-25T01:22:29.119Z,1.25
2023-01-25T01:24:58.740Z,1.35
2023-01-25T01:27:30.765Z,1.40
2023-01-25T01:30:00.514Z,1.39
2023-01-25T01:32:32.114Z,1.46
2023-01-25T01:35:01.837Z,1.40
2023-01-25T01:37:34.057Z,1.34
2023-01-25T01:40:05.018Z,1.38
2023-01-25T01:42:34.585Z,1.34
2023-01-25T01:45:04.283Z,1.27
2023-01-25T01:47:39.130Z,1.26
2023-01-25T01:50:21.363Z,1.17
2023-01-25T01:52:59.080Z,1.15
2023-01-25T01:55:29.255Z,1.21
2023-01-25T01:58:00.179Z,1.32
2023-01-25T02:00:33.479Z,1.31
2023-01-25T02:03:04.201Z,1.24
2023-01-25T02:05:40.744Z,1.21
2023-01-25T02:08:17.688Z,1.26
2023-01-25T02:10:51.440Z,1.34
2023-01-25T02:13:22.701Z,1.42
2023-01-25T02:15:53.640Z,1.45
2023-01-25T02:18:24.905Z,1.48
2023-01-25T02:21:00.435Z,1.52
2023-01-25T02:23:40.626Z,1.51
2023-01-25T02:26:14.013Z,1.53
2023-01-25T02:28:46.605Z,1.57
2023-01-25T02:31:17.285Z,1.58
2023-01-25T02:33:47.244Z,1.47
2023-01-25T02:36:20.426Z,1.41
2023-01-25T02:38:53.201Z,1.38
2023-01-25T02:41:39.982Z,1.37
2023-01-25T02:44:18.486Z,1.25
2023-01-25T02:46:49.152Z,1.18
2023-01-25T02:49:19.367Z,1.12
2023-01-25T02:51:52.000Z,1.15
2023-01-25T02:54:22.895Z,1.15
2023-01-25T02:56:56.189Z,1.10
2023-01-25T02:59:28.374Z,1.07
2023-01-25T03:02:03.993Z,1.09
2023-01-25T03:04:35.057Z,1.19
2023-01-25T03:07:06.686Z,1.28
2023-01-25T03:09:36.771Z,1.31
2023-01-25T03:12:09.550Z,1.28
2023-01-25T03:14:41.264Z,1.28
2023-01-25T03:17:12.577Z,1.25
2023-01-25T03:19:42.457Z,1.30
2023-01-25T03:22:12.450Z,1.33
2023-01-25T03:24:42.144Z,1.32
2023-01-25T03:27:18.541Z,1.31
2023-01-25T03:30:12.193Z,1.16
2023-01-25T03:32:41.984Z,1.14
2023-01-25T03:35:16.105Z,1.23
2023-01-25T03:37:48.776Z,1.30
2023-01-25T03:40:18.691Z,1.23
2023-01-25T03:42:55.626Z,1.29
2023-01-25T03:45:27.850Z,1.32
2023-01-25T03:47:57.999Z,1.20
2023-01-25T03:50:27.552Z,1.07
2023-01-25T03:53:02.244Z,0.98
2023-01-25T03:55:34.446Z,1.08
2023-01-25T03:58:07.632Z,1.12
2023-01-25T04:00:37.807Z,1.02
2023-01-25T04:03:08.047Z,0.98
2023-01-25T04:05:38.139Z,1.02
2023-01-25T04:08:16.520Z,0.89
2023-01-25T04:10:48.884Z,0.80
2023-01-25T04:13:21.257Z,0.77
2023-01-25T04:15:52.218Z,0.74
2023-01-25T04:18:42.362Z,0.78
2023-01-25T04:21:12.763Z,0.92
2023-01-25T04:23:42.761Z,0.97
2023-01-25T04:26:13.012Z,1.00
2023-01-25T04:28:46.287Z,1.04
2023-01-25T04:31:16.519Z,1.09
2023-01-25T04:33:46.523Z,1.06
2023-01-25T04:36:19.323Z,1.05
2023-01-25T04:38:50.059Z,1.06
2023-01-25T04:41:20.051Z,1.14
2023-01-25T04:43:53.705Z,1.17
2023-01-25T04:46:23.477Z,1.14
2023-01-25T04:48:56.507Z,1.16
2023-01-25T04:51:26.162Z,1.16
2023-01-25T04:53:56.083Z,1.18
2023-01-25T04:56:35.619Z,1.15
2023-01-25T04:59:07.916Z,1.01
2023-01-25T05:01:38.103Z,0.93
2023-01-25T05:04:09.734Z,0.98
2023-01-25T05:06:47.206Z,1.03
2023-01-25T05:09:19.031Z,1.01
2023-01-25T05:11:49.693Z,1.02
2023-01-25T05:14:39.848Z,1.16
2023-01-25T05:17:10.712Z,1.15
2023-01-25T05:19:41.113Z,1.03
2023-01-25T05:22:17.713Z,0.92
2023-01-25T05:24:51.505Z,0.84
2023-01-25T05:27:19.899Z,0.85
2023-01-25T05:30:01.300Z,0.84
2023-01-25T05:32:41.406Z,0.81
2023-01-25T05:35:11.919Z,0.82
2023-01-25T05:37:42.324Z,0.90
2023-01-25T05:40:18.299Z,0.95
2023-01-25T05:42:48.148Z,1.03
2023-01-25T05:45:23.400Z,1.00
2023-01-25T05:47:57.621Z,1.07
2023-01-25T05:50:28.666Z,1.12
2023-01-25T05:53:11.262Z,1.13
2023-01-25T05:55:42.144Z,1.16
2023-01-25T05:58:16.376Z,1.26
2023-01-25T06:00:48.909Z,1.31
2023-01-25T06:03:32.538Z,1.38
2023-01-25T06:06:04.217Z,1.31
2023-01-25T06:08:35.690Z,1.36
2023-01-25T06:11:09.160Z,1.43
2023-01-25T06:13:41.220Z,1.42
2023-01-25T06:16:14.120Z,1.35
2023-01-25T06:18:47.204Z,1.35
2023-01-25T06:21:38.080Z,1.34
2023-01-25T06:24:10.477Z,1.30
2023-01-25T06:26:45.481Z,1.26
2023-01-25T06:29:15.107Z,1.31
2023-01-25T06:31:47.367Z,1.21
2023-01-25T06:34:17.224Z,1.16
2023-01-25T06:36:47.049Z,1.25
2023-01-25T06:39:16.992Z,1.33
2023-01-25T06:41:46.729Z,1.34
2023-01-25T06:44:20.045Z,1.20
2023-01-25T06:47:04.974Z,1.23
2023-01-25T06:49:37.152Z,1.31
2023-01-25T06:52:07.215Z,1.36
2023-01-25T06:54:39.195Z,1.32
2023-01-25T06:57:10.491Z,1.18
2023-01-25T06:59:41.478Z,1.15
2023-01-25T07:02:17.069Z,1.21
2023-01-25T07:04:51.285Z,1.12
2023-01-25T07:07:21.022Z,1.08
2023-01-25T07:09:56.539Z,1.04
2023-01-25T07:12:26.616Z,1.02
2023-01-25T07:14:56.369Z,1.06
2023-01-25T07:17:26.186Z,1.17
2023-01-25T07:20:01.131Z,1.26
2023-01-25T07:22:33.476Z,1.36
2023-01-25T07:25:07.117Z,1.34
2023-01-25T07:27:39.504Z,1.23
2023-01-25T07:30:12.906Z,1.16
2023-01-25T07:32:42.594Z,1.11
2023-01-25T07:35:17.403Z,1.09
2023-01-25T07:37:47.225Z,1.06
2023-01-25T07:40:17.456Z,1.15
2023-01-25T07:42:47.197Z,1.27
2023-01-25T07:45:18.699Z,1.35
2023-01-25T07:47:48.570Z,1.42
2023-01-25T07:50:24.928Z,1.47
2023-01-25T07:52:55.459Z,1.56
2023-01-25T07:55:25.168Z,1.57
2023-01-25T07:57:57.287Z,1.56
2023-01-25T08:00:26.954Z,1.59
2023-01-25T08:03:02.474Z,1.63
2023-01-25T08:05:34.893Z,1.60
2023-01-25T08:08:16.686Z,1.63
2023-01-25T08:10:46.263Z,1.69
2023-01-25T08:13:15.920Z,1.73
2023-01-25T08:15:45.677Z,1.81
2023-01-25T08:18:16.264Z,1.81
2023-01-25T08:20:52.771Z,1.86
2023-01-25T08:23:23.666Z,1.84
2023-01-25T08:25:53.304Z,1.81
2023-01-25T08:28:22.981Z,1.69
2023-01-25T08:30:57.552Z,1.67
2023-01-25T08:33:29.570Z,1.69
2023-01-25T08:36:01.829Z,1.62
2023-01-25T08:38:31.456Z,1.59
2023-01-25T08:41:09.529Z,1.52
2023-01-25T08:43:39.673Z,1.47
2023-01-25T08:46:09.609Z,1.48
2023-01-25T08:48:39.301Z,1.52
2023-01-25T08:51:14.432Z,1.58
2023-01-25T08:53:44.338Z,1.64
2023-01-25T08:56:22.126Z,1.70
2023-01-25T08:58:53.063Z,1.76
2023-01-25T09:01:28.680Z,1.73
2023-01-25T09:04:00.885Z,1.76
2023-01-25T09:06:33.615Z,1.84
2023-01-25T09:09:05.222Z,1.81
2023-01-25T09:11:37.218Z,1.66
2023-01-25T09:14:07.121Z,1.54
2023-01-25T09:16:36.829Z,1.54
2023-01-25T09:19:07.888Z,1.60
2023-01-25T09:21:43.734Z,1.71
2023-01-25T09:24:14.246Z,1.78
2023-01-25T09:26:55.687Z,1.85
2023-01-25T09:29:28.889Z,1.79
2023-01-25T09:32:00.389Z,1.82
2023-01-25T09:34:37.263Z,1.81
2023-01-25T09:37:09.529Z,1.67
2023-01-25T09:39:41.852Z,1.69
2023-01-25T09:42:40.584Z,1.78
2023-01-25T09:45:46.172Z,1.90
2023-01-25T09:48:21.494Z,1.92
2023-01-25T09:51:02.814Z,1.91
2023-01-25T09:53:37.834Z,1.90
2023-01-25T09:56:12.903Z,1.85
2023-01-25T09:58:47.391Z,1.62
2023-01-25T10:01:39.342Z,1.63
2023-01-25T10:04:15.439Z,1.65
2023-01-25T10:06:55.056Z,1.65
2023-01-25T10:09:35.275Z,1.68
2023-01-25T10:12:16.043Z,1.65
2023-01-25T10:14:45.736Z,1.71
2023-01-25T10:17:21.728Z,1.81
2023-01-25T10:20:10.336Z,1.82
2023-01-25T10:22:46.193Z,1.90
2023-01-25T10:25:27.204Z,1.97
2023-01-25T10:28:07.925Z,1.95
2023-01-25T10:30:41.224Z,1.98
2023-01-25T10:33:18.058Z,1.99
2023-01-25T10:35:49.810Z,1.98
2023-01-25T10:38:22.906Z,2.03
2023-01-25T10:40:57.168Z,1.98
2023-01-25T10:43:30.289Z,1.84
2023-01-25T10:46:00.269Z,1.74
2023-01-25T10:48:33.080Z,1.75
2023-01-25T10:51:03.244Z,1.84
2023-01-25T10:53:38.489Z,1.84
2023-01-25T10:56:27.300Z,1.75
2023-01-25T10:59:08.698Z,1.82
2023-01-25T11:01:50.298Z,1.75
2023-01-25T11:04:36.352Z,1.68
2023-01-25T11:07:07.183Z,1.69
2023-01-25T11:09:41.432Z,1.81
2023-01-25T11:12:22.524Z,1.89
2023-01-25T11:14:52.969Z,1.80
2023-01-25T11:17:27.997Z,1.78
2023-01-25T11:20:19.834Z,1.77
2023-01-25T11:22:54.553Z,1.85
2023-01-25T11:25:32.532Z,1.85
2023-01-25T11:28:19.469Z,1.90
2023-01-25T11:30:52.566Z,1.76
2023-01-25T11:33:23.045Z,1.75
2023-01-25T11:36:01.890Z,1.76
2023-01-25T11:38:31.978Z,1.67
2023-01-25T11:41:07.629Z,1.77
2023-01-25T11:43:50.881Z,1.84
2023-01-25T11:46:24.402Z,1.91
2023-01-25T11:49:09.040Z,1.94
2023-01-25T11:51:42.405Z,1.93
2023-01-25T11:54:26.407Z,1.80
2023-01-25T11:57:00.451Z,1.76
2023-01-25T11:59:43.007Z,1.80
2023-01-25T12:02:24.772Z,1.68
2023-01-25T12:05:06.364Z,1.79
2023-01-25T12:07:43.639Z,1.78
2023-01-25T12:10:22.291Z,1.79
2023-01-25T12:12:57.688Z,1.78
2023-01-25T12:15:35.043Z,1.83
2023-01-25T12:18:11.917Z,1.86
2023-01-25T12:20:45.498Z,1.89
2023-01-25T12:23:29.827Z,1.77
2023-01-25T12:26:20.195Z,1.81
2023-01-25T12:28:52.362Z,1.90
2023-01-25T12:31:26.607Z,1.90
2023-01-25T12:34:00.878Z,1.90
2023-01-25T12:36:34.766Z,1.96
2023-01-25T12:39:06.494Z,1.90
2023-01-25T12:41:42.073Z,1.90
2023-01-25T12:44:17.373Z,1.90
2023-01-25T12:46:54.606Z,1.90
2023-01-25T12:49:28.069Z,1.85
2023-01-25T12:51:59.523Z,1.77
2023-01-25T12:54:33.159Z,1.73
2023-01-25T12:57:22.526Z,1.77
2023-01-25T12:59:57.498Z,1.86
2023-01-25T13:02:40.354Z,1.86
2023-01-25T13:05:24.441Z,1.78
2023-01-25T13:07:58.664Z,1.70
2023-01-25T13:10:30.700Z,1.67
2023-01-25T13:13:03.765Z,1.62
2023-01-25T13:15:40.999Z,1.61
2023-01-25T13:18:25.474Z,1.61
2023-01-25T13:20:58.491Z,1.63
2023-01-25T13:23:32.978Z,1.59
2023-01-25T13:26:17.364Z,1.57
2023-01-25T13:28:48.103Z,1.62
2023-01-25T13:31:46.340Z,1.60
2023-01-25T13:34:44.846Z,1.67
2023-01-25T13:37:22.699Z,1.75
2023-01-25T13:39:53.359Z,1.71
2023-01-25T13:42:25.505Z,1.66
2023-01-25T13:44:57.223Z,1.71
2023-01-25T13:47:30.454Z,1.70
2023-01-25T13:50:04.282Z,1.72
2023-01-25T13:52:39.322Z,1.79
2023-01-25T13:55:19.321Z,1.87
2023-01-25T13:57:51.564Z,1.85
2023-01-25T14:00:21.812Z,1.86
2023-01-25T14:02:56.948Z,1.78
2023-01-25T14:05:27.893Z,1.74
2023-01-25T14:08:00.142Z,1.66
2023-01-25T14:10:30.630Z,1.65
2023-01-25T14:13:02.607Z,1.63
2023-01-25T14:15:33.601Z,1.64
2023-01-25T14:18:06.886Z,1.69
2023-01-25T14:20:36.977Z,1.82
2023-01-25T14:23:21.475Z,1.92
2023-01-25T14:25:54.220Z,1.92
2023-01-25T14:28:24.051Z,1.88
2023-01-25T14:30:55.044Z,1.86
2023-01-25T14:33:25.929Z,1.85
2023-01-25T14:36:01.730Z,1.86
2023-01-25T14:38:37.339Z,1.86
2023-01-25T14:41:17.899Z,1.89
2023-01-25T14:43:49.289Z,1.78
2023-01-25T14:46:23.318Z,1.68
2023-01-25T14:48:53.041Z,1.66
2023-01-25T14:51:28.142Z,1.74
2023-01-25T14:54:02.797Z,1.75
2023-01-25T14:56:36.880Z,1.76
2023-01-25T14:59:07.483Z,1.81
2023-01-25T15:01:40.085Z,1.84
2023-01-25T15:04:15.797Z,1.81
2023-01-25T15:06:48.120Z,1.82
2023-01-25T15:09:43.075Z,1.84
2023-01-25T15:12:34.570Z,1.86
2023-01-25T15:15:19.076Z,1.85
2023-01-25T15:17:52.779Z,1.80
2023-01-25T15:20:32.822Z,1.69
2023-01-25T15:23:09.216Z,1.68
2023-01-25T15:25:50.718Z,1.59
2023-01-25T15:28:20.634Z,1.54
2023-01-25T15:30:50.608Z,1.43
2023-01-25T15:33:24.851Z,1.45
2023-01-25T15:35:54.896Z,1.41
2023-01-25T15:38:25.177Z,1.38
2023-01-25T15:41:00.451Z,1.42
2023-01-25T15:43:30.396Z,1.36
2023-01-25T15:46:00.913Z,1.35
2023-01-25T15:48:36.082Z,1.31
2023-01-25T15:51:05.757Z,1.31
2023-01-25T15:53:35.491Z,1.33
2023-01-25T15:56:06.757Z,1.29
2023-01-25T15:58:45.163Z,1.30
2023-01-25T16:01:14.949Z,1.38
2023-01-25T16:03:48.003Z,1.43
2023-01-25T16:06:36.454Z,1.49
2023-01-25T16:09:09.175Z,1.48
2023-01-25T16:11:38.796Z,1.42
2023-01-25T16:14:15.374Z,1.28
2023-01-25T16:16:46.726Z,1.19
2023-01-25T16:19:20.688Z,1.19
2023-01-25T16:21:50.752Z,1.21
2023-01-25T16:24:20.848Z,1.10
2023-01-25T16:26:53.428Z,1.15
2023-01-25T16:29:23.466Z,1.12
2023-01-25T16:31:53.857Z,1.09
2023-01-25T16:34:26.647Z,1.10
2023-01-25T16:36:57.736Z,1.19
2023-01-25T16:39:28.442Z,1.24
2023-01-25T16:41:58.379Z,1.28
2023-01-25T16:44:28.074Z,1.24
2023-01-25T16:47:03.872Z,1.17
2023-01-25T16:49:36.200Z,1.10
2023-01-25T16:52:06.631Z,1.16
2023-01-25T16:54:36.238Z,1.19
2023-01-25T16:57:20.028Z,1.20
2023-01-25T16:59:50.434Z,1.30
2023-01-25T17:02:26.208Z,1.37
2023-01-25T17:04:58.472Z,1.36
2023-01-25T17:07:28.151Z,1.32
2023-01-25T17:09:57.771Z,1.25
2023-01-25T17:12:27.626Z,1.16
2023-01-25T17:14:59.580Z,1.09
2023-01-25T17:17:34.325Z,1.05
2023-01-25T17:20:06.817Z,0.97
2023-01-25T17:22:38.390Z,0.97
2023-01-25T17:25:08.793Z,1.06
2023-01-25T17:27:38.544Z,1.17
2023-01-25T17:30:09.164Z,1.24
2023-01-25T17:32:39.854Z,1.25
2023-01-25T17:35:12.578Z,1.28
2023-01-25T17:37:42.396Z,1.26
2023-01-25T17:40:13.129Z,1.15
2023-01-25T17:42:43.120Z,1.02
2023-01-25T17:45:13.483Z,0.98
2023-01-25T17:47:43.336Z,0.92
2023-01-25T17:50:15.925Z,1.00
2023-01-25T17:52:45.634Z,1.05
2023-01-25T17:55:15.289Z,1.09
2023-01-25T17:57:45.128Z,1.13
2023-01-25T18:00:15.348Z,1.20
2023-01-25T18:02:46.308Z,1.19
2023-01-25T18:05:19.000Z,1.24
2023-01-25T18:07:48.607Z,1.25
2023-01-25T18:10:18.998Z,1.25
2023-01-25T18:13:03.642Z,1.16
2023-01-25T18:15:34.173Z,1.17
2023-01-25T18:18:03.692Z,1.16
2023-01-25T18:20:35.961Z,1.12
2023-01-25T18:23:05.981Z,1.12
2023-01-25T18:25:36.584Z,1.18
2023-01-25T18:28:06.951Z,1.12
2023-01-25T18:30:38.047Z,1.13
2023-01-25T18:33:08.472Z,1.15
2023-01-25T18:35:41.326Z,1.04
2023-01-25T18:38:12.989Z,1.00
2023-01-25T18:40:43.863Z,1.05
2023-01-25T18:43:13.846Z,0.98
2023-01-25T18:45:43.532Z,0.89
2023-01-25T18:48:13.734Z,0.95
2023-01-25T18:50:46.119Z,0.92
2023-01-25T18:53:17.756Z,0.87
2023-01-25T18:55:47.334Z,0.87
2023-01-25T18:58:20.454Z,0.80
2023-01-25T19:00:50.087Z,0.75
2023-01-25T19:03:19.718Z,0.74
2023-01-25T19:06:05.506Z,0.70
2023-01-25T19:08:36.458Z,0.68
2023-01-25T19:11:07.248Z,0.59
2023-01-25T19:13:37.702Z,0.47
2023-01-25T19:16:08.725Z,0.47
2023-01-25T19:18:40.582Z,0.49
2023-01-25T19:21:13.428Z,0.47
2023-01-25T19:23:43.598Z,0.50
2023-01-25T19:26:14.329Z,0.45
2023-01-25T19:28:44.355Z,0.46
2023-01-25T19:31:15.158Z,0.56
2023-01-25T19:33:45.262Z,0.59
2023-01-25T19:36:19.643Z,0.56
2023-01-25T19:38:50.132Z,0.58
2023-01-25T19:41:20.330Z,0.51
2023-01-25T19:43:50.111Z,0.43
2023-01-25T19:46:20.628Z,0.40
2023-01-25T19:48:51.064Z,0.42
2023-01-25T19:51:24.510Z,0.44
2023-01-25T19:53:58.649Z,0.45
2023-01-25T19:56:28.932Z,0.41
2023-01-25T19:58:58.631Z,0.31
2023-01-25T20:01:29.602Z,0.24
2023-01-25T20:04:02.204Z,0.21
2023-01-25T20:06:34.547Z,0.18
2023-01-25T20:09:04.154Z,0.15
2023-01-25T20:11:37.537Z,0.10
2023-01-25T20:14:07.842Z,0.15
2023-01-25T20:16:37.818Z,0.20
2023-01-25T20:19:07.695Z,0.24
2023-01-25T20:21:40.189Z,0.32
2023-01-25T20:24:10.693Z,0.33
2023-01-25T20:26:43.049Z,0.29
2023-01-25T20:29:15.365Z,0.29
2023-01-25T20:31:47.557Z,0.21
2023-01-25T20:34:19.848Z,0.10
2023-01-25T20:36:53.085Z,0.08
2023-01-25T20:39:24.982Z,0.03
2023-01-25T20:42:01.340Z,0.03
2023-01-25T20:44:30.985Z,0.05
2023-01-25T20:47:00.850Z,0.09
2023-01-25T20:49:30.608Z,0.01
2023-01-25T20:52:02.865Z,0.02
2023-01-25T20:54:35.325Z,0.03
2023-01-25T20:57:04.921Z,0.02
2023-01-25T20:59:34.679Z,-0.03
2023-01-25T21:02:04.480Z,-0.03
2023-01-25T21:04:34.318Z,-0.04
2023-01-25T21:07:07.173Z,-0.03
2023-01-25T21:09:36.843Z,-0.04
2023-01-25T21:12:06.501Z,-0.04
2023-01-25T21:14:36.171Z,-0.08
2023-01-25T21:17:05.830Z,-0.07
2023-01-25T21:19:35.562Z,-0.32
2023-01-25T21:22:07.864Z,-0.05
2023-01-25T21:24:37.376Z,-0.11
2023-01-25T21:27:08.128Z,-0.14
2023-01-25T21:29:37.906Z,-0.10
2023-01-25T21:32:07.639Z,-0.08
2023-01-25T21:34:37.251Z,0.02
2023-01-25T21:37:09.444Z,-0.01
2023-01-25T21:39:40.067Z,-0.05
2023-01-25T21:42:09.821Z,0.00
2023-01-25T21:44:51.867Z,0.11
2023-01-25T21:47:30.304Z,0.18
2023-01-25T21:50:13.799Z,0.13
2023-01-25T21:52:50.087Z,0.08
2023-01-25T21:55:19.641Z,0.03
2023-01-25T21:57:49.275Z,-0.07
2023-01-25T22:00:20.591Z,-0.08
2023-01-25T22:02:54.053Z,0.00
2023-01-25T22:05:27.112Z,0.02
2023-01-25T22:08:00.776Z,0.07
2023-01-25T22:10:30.599Z,-0.02
2023-01-25T22:13:00.227Z,-0.09
2023-01-25T22:15:29.863Z,-0.14
2023-01-25T22:18:01.268Z,-0.19
2023-01-25T22:20:30.843Z,-0.22
2023-01-25T22:23:06.102Z,-0.15
2023-01-25T22:25:35.689Z,-0.19
2023-01-25T22:28:07.514Z,-0.27
2023-01-25T22:30:37.214Z,-0.30
2023-01-25T22:33:10.252Z,-0.33
2023-01-25T22:35:39.928Z,-0.34
2023-01-25T22:38:15.617Z,-0.38
2023-01-25T22:40:47.913Z,-0.45
2023-01-25T22:43:17.809Z,-0.44
2023-01-25T22:45:55.297Z,-0.45
2023-01-25T22:48:30.025Z,-0.43
2023-01-25T22:51:03.017Z,-0.37
2023-01-25T22:53:33.245Z,-0.44
2023-01-25T22:56:07.835Z,-0.68
2023-01-25T22:58:38.332Z,-0.31
2023-01-25T23:01:10.833Z,-0.38
2023-01-25T23:03:40.471Z,-0.47
2023-01-25T23:06:11.405Z,-0.56
2023-01-25T23:08:41.326Z,-0.52
2023-01-25T23:11:15.721Z,-0.52
2023-01-25T23:14:05.783Z,-0.52
2023-01-25T23:16:37.903Z,-0.56
2023-01-25T23:19:05.799Z,-0.62
2023-01-25T23:21:35.837Z,-0.61
2023-01-25T23:24:06.132Z,-0.57
2023-01-25T23:26:46.675Z,-0.54
2023-01-25T23:29:16.990Z,-0.58
2023-01-25T23:31:46.731Z,-0.60
2023-01-25T23:34:16.476Z,-0.59
2023-01-25T23:36:47.727Z,-0.56
2023-01-25T23:39:17.282Z,-0.55
2023-01-25T23:41:52.523Z,-0.54
2023-01-25T23:44:23.260Z,-0.53
2023-01-25T23:46:52.995Z,-0.46
2023-01-25T23:49:22.579Z,-0.45
2023-01-25T23:51:52.225Z,-0.47
2023-01-25T23:54:22.728Z,-0.44
2023-01-25T23:56:54.904Z,-0.42
2023-01-25T23:59:24.624Z,-0.40
